sensor_id;sensor_type;location;lat;lon;timestamp;pressure;altitude;pressure_sealevel;temperature;humidity
9523;BME280;63165;43.016;25.784;2023-04-27T00:00:18;99683.63;;;11.83;90.39
9523;BME280;63165;43.016;25.784;2023-04-27T00:02:46;99675.91;;;11.79;90.36
9523;BME280;63165;43.016;25.784;2023-04-27T00:05:13;99662.34;;;11.63;89.49
9523;BME280;63165;43.016;25.784;2023-04-27T00:07:40;99682.44;;;11.62;88.53
9523;BME280;63165;43.016;25.784;2023-04-27T00:10:08;99682.59;;;11.58;89.03
9523;BME280;63165;43.016;25.784;2023-04-27T00:12:36;99663.75;;;11.43;89.17
9523;BME280;63165;43.016;25.784;2023-04-27T00:15:03;99684.50;;;11.51;88.81
9523;BME280;63165;43.016;25.784;2023-04-27T00:17:32;99687.94;;;11.53;88.92
9523;BME280;63165;43.016;25.784;2023-04-27T00:20:00;99691.47;;;11.52;88.81
9523;BME280;63165;43.016;25.784;2023-04-27T00:22:30;99700.28;;;11.48;88.92
9523;BME280;63165;43.016;25.784;2023-04-27T00:24:57;99684.97;;;11.33;88.94
9523;BME280;63165;43.016;25.784;2023-04-27T00:27:24;99705.75;;;11.39;88.37
9523;BME280;63165;43.016;25.784;2023-04-27T00:29:51;99697.38;;;11.26;87.91
9523;BME280;63165;43.016;25.784;2023-04-27T00:32:19;99726.91;;;11.31;88.25
9523;BME280;63165;43.016;25.784;2023-04-27T00:34:47;99714.59;;;11.35;88.03
9523;BME280;63165;43.016;25.784;2023-04-27T00:37:15;99718.13;;;11.34;88.58
9523;BME280;63165;43.016;25.784;2023-04-27T00:39:43;99705.25;;;11.26;88.86
9523;BME280;63165;43.016;25.784;2023-04-27T00:42:10;99709.53;;;11.29;88.86
9523;BME280;63165;43.016;25.784;2023-04-27T00:44:40;99722.47;;;11.35;89.22
9523;BME280;63165;43.016;25.784;2023-04-27T00:47:07;99733.06;;;11.30;89.22
9523;BME280;63165;43.016;25.784;2023-04-27T00:49:36;99721.84;;;11.25;89.43
9523;BME280;63165;43.016;25.784;2023-04-27T00:52:05;99727.09;;;11.23;89.39
9523;BME280;63165;43.016;25.784;2023-04-27T00:54:32;99741.72;;;11.34;89.63
9523;BME280;63165;43.016;25.784;2023-04-27T00:57:00;99743.53;;;11.30;89.45
9523;BME280;63165;43.016;25.784;2023-04-27T00:59:29;99747.91;;;11.30;89.18
9523;BME280;63165;43.016;25.784;2023-04-27T01:01:56;99756.75;;;11.24;88.43
9523;BME280;63165;43.016;25.784;2023-04-27T01:04:23;99747.22;;;11.23;88.30
9523;BME280;63165;43.016;25.784;2023-04-27T01:06:51;99757.72;;;11.21;88.35
9523;BME280;63165;43.016;25.784;2023-04-27T01:09:20;99754.34;;;11.16;87.56
9523;BME280;63165;43.016;25.784;2023-04-27T01:11:47;99763.91;;;11.17;87.95
9523;BME280;63165;43.016;25.784;2023-04-27T01:14:15;99755.56;;;11.01;88.14
9523;BME280;63165;43.016;25.784;2023-04-27T01:16:43;99764.81;;;11.16;88.69
9523;BME280;63165;43.016;25.784;2023-04-27T01:19:10;99771.13;;;11.07;88.33
9523;BME280;63165;43.016;25.784;2023-04-27T01:21:38;99751.28;;;10.97;88.82
9523;BME280;63165;43.016;25.784;2023-04-27T01:24:08;99778.16;;;11.05;88.95
9523;BME280;63165;43.016;25.784;2023-04-27T01:26:35;99782.47;;;11.08;88.72
9523;BME280;63165;43.016;25.784;2023-04-27T01:29:02;99793.16;;;10.99;89.10
9523;BME280;63165;43.016;25.784;2023-04-27T01:31:29;99792.16;;;11.03;88.89
9523;BME280;63165;43.016;25.784;2023-04-27T01:33:57;99792.28;;;10.98;88.89
9523;BME280;63165;43.016;25.784;2023-04-27T01:36:24;99808.00;;;10.98;89.39
9523;BME280;63165;43.016;25.784;2023-04-27T01:38:52;99780.44;;;10.82;88.64
9523;BME280;63165;43.016;25.784;2023-04-27T01:41:20;99790.94;;;10.79;88.21
9523;BME280;63165;43.016;25.784;2023-04-27T01:43:48;99785.84;;;10.74;88.45
9523;BME280;63165;43.016;25.784;2023-04-27T01:46:16;99779.25;;;10.55;88.15
9523;BME280;63165;43.016;25.784;2023-04-27T01:48:43;99799.94;;;10.67;88.58
9523;BME280;63165;43.016;25.784;2023-04-27T01:51:11;99811.28;;;10.66;88.96
9523;BME280;63165;43.016;25.784;2023-04-27T01:53:39;99805.28;;;10.62;89.44
9523;BME280;63165;43.016;25.784;2023-04-27T01:56:07;99800.72;;;10.72;89.31
9523;BME280;63165;43.016;25.784;2023-04-27T01:58:36;99781.88;;;10.55;89.24
9523;BME280;63165;43.016;25.784;2023-04-27T02:01:03;99780.31;;;10.47;88.99
9523;BME280;63165;43.016;25.784;2023-04-27T02:03:31;99811.44;;;10.58;89.26
9523;BME280;63165;43.016;25.784;2023-04-27T02:05:58;99821.97;;;10.57;89.13
9523;BME280;63165;43.016;25.784;2023-04-27T02:08:25;99821.97;;;10.57;89.54
9523;BME280;63165;43.016;25.784;2023-04-27T02:10:52;99822.88;;;10.54;89.19
9523;BME280;63165;43.016;25.784;2023-04-27T02:13:19;99822.91;;;10.53;88.95
9523;BME280;63165;43.016;25.784;2023-04-27T02:15:48;99826.47;;;10.48;88.82
9523;BME280;63165;43.016;25.784;2023-04-27T02:18:15;99777.44;;;10.13;89.11
9523;BME280;63165;43.016;25.784;2023-04-27T02:20:43;99809.25;;;10.38;90.06
9523;BME280;63165;43.016;25.784;2023-04-27T02:23:10;99804.94;;;10.36;89.58
9523;BME280;63165;43.016;25.784;2023-04-27T02:25:37;99799.91;;;10.25;89.40
9523;BME280;63165;43.016;25.784;2023-04-27T02:28:07;99835.31;;;10.43;89.14
9523;BME280;63165;43.016;25.784;2023-04-27T02:30:35;99817.25;;;10.29;89.38
9523;BME280;63165;43.016;25.784;2023-04-27T02:33:04;99724.19;;;9.74;89.99
9523;BME280;63165;43.016;25.784;2023-04-27T02:35:31;99776.16;;;9.89;90.06
9523;BME280;63165;43.016;25.784;2023-04-27T02:37:58;99840.63;;;10.38;90.52
9523;BME280;63165;43.016;25.784;2023-04-27T02:40:26;99838.91;;;10.36;90.72
9523;BME280;63165;43.016;25.784;2023-04-27T02:42:53;99819.75;;;10.37;90.91
9523;BME280;63165;43.016;25.784;2023-04-27T02:45:21;99852.56;;;10.52;90.37
9523;BME280;63165;43.016;25.784;2023-04-27T02:47:48;99824.94;;;10.38;90.09
9523;BME280;63165;43.016;25.784;2023-04-27T02:50:17;99846.38;;;10.56;90.34
9523;BME280;63165;43.016;25.784;2023-04-27T02:52:44;99848.97;;;10.59;90.24
9523;BME280;63165;43.016;25.784;2023-04-27T02:55:12;99819.72;;;10.38;90.38
9523;BME280;63165;43.016;25.784;2023-04-27T02:57:39;99819.56;;;10.46;90.23
9523;BME280;63165;43.016;25.784;2023-04-27T03:00:07;99773.28;;;10.04;90.19
9523;BME280;63165;43.016;25.784;2023-04-27T03:02:36;99855.09;;;10.56;90.38
9523;BME280;63165;43.016;25.784;2023-04-27T03:05:03;99806.94;;;10.21;90.58
9523;BME280;63165;43.016;25.784;2023-04-27T03:07:33;99855.25;;;10.48;90.48
9523;BME280;63165;43.016;25.784;2023-04-27T03:10:00;99870.97;;;10.47;91.04
9523;BME280;63165;43.016;25.784;2023-04-27T03:12:27;99833.84;;;10.26;91.43
9523;BME280;63165;43.016;25.784;2023-04-27T03:14:54;99819.19;;;10.18;91.89
9523;BME280;63165;43.016;25.784;2023-04-27T03:17:22;99854.56;;;10.39;91.86
9523;BME280;63165;43.016;25.784;2023-04-27T03:19:50;99823.66;;;10.13;91.65
9523;BME280;63165;43.016;25.784;2023-04-27T03:22:17;99874.66;;;10.37;92.22
9523;BME280;63165;43.016;25.784;2023-04-27T03:24:46;99891.19;;;10.39;92.76
9523;BME280;63165;43.016;25.784;2023-04-27T03:27:13;99877.41;;;10.31;92.42
9523;BME280;63165;43.016;25.784;2023-04-27T03:29:41;99873.97;;;10.24;92.35
9523;BME280;63165;43.016;25.784;2023-04-27T03:32:08;99880.97;;;10.23;92.48
9523;BME280;63165;43.016;25.784;2023-04-27T03:34:35;99893.09;;;10.27;92.78
9523;BME280;63165;43.016;25.784;2023-04-27T03:37:02;99898.31;;;10.27;93.00
9523;BME280;63165;43.016;25.784;2023-04-27T03:39:29;99890.41;;;10.34;93.37
9523;BME280;63165;43.016;25.784;2023-04-27T03:41:58;99856.97;;;10.00;93.49
9523;BME280;63165;43.016;25.784;2023-04-27T03:44:26;99910.47;;;10.32;93.49
9523;BME280;63165;43.016;25.784;2023-04-27T03:46:53;99893.09;;;10.27;93.43
9523;BME280;63165;43.016;25.784;2023-04-27T03:49:20;99882.75;;;10.21;94.34
9523;BME280;63165;43.016;25.784;2023-04-27T03:51:47;99894.84;;;10.27;94.08
9523;BME280;63165;43.016;25.784;2023-04-27T03:54:15;99885.25;;;10.31;94.43
9523;BME280;63165;43.016;25.784;2023-04-27T03:56:42;99882.19;;;10.02;94.68
9523;BME280;63165;43.016;25.784;2023-04-27T03:59:11;99911.97;;;10.46;94.60
9523;BME280;63165;43.016;25.784;2023-04-27T04:01:39;99922.41;;;10.46;94.77
9523;BME280;63165;43.016;25.784;2023-04-27T04:04:06;99853.25;;;10.13;94.43
9523;BME280;63165;43.016;25.784;2023-04-27T04:06:33;99906.81;;;10.42;94.51
9523;BME280;63165;43.016;25.784;2023-04-27T04:09:01;99879.41;;;10.11;93.75
9523;BME280;63165;43.016;25.784;2023-04-27T04:11:30;99906.03;;;10.37;94.15
9523;BME280;63165;43.016;25.784;2023-04-27T04:13:57;99908.75;;;10.29;94.07
9523;BME280;63165;43.016;25.784;2023-04-27T04:16:25;99906.22;;;10.23;94.30
9523;BME280;63165;43.016;25.784;2023-04-27T04:18:52;99901.94;;;10.20;94.00
9523;BME280;63165;43.016;25.784;2023-04-27T04:21:19;99908.25;;;10.07;94.27
9523;BME280;63165;43.016;25.784;2023-04-27T04:23:47;99914.97;;;10.23;94.18
9523;BME280;63165;43.016;25.784;2023-04-27T04:26:14;99940.88;;;10.37;94.66
9523;BME280;63165;43.016;25.784;2023-04-27T04:28:41;99933.91;;;10.38;94.46
9523;BME280;63165;43.016;25.784;2023-04-27T04:31:10;99912.28;;;10.26;94.41
9523;BME280;63165;43.016;25.784;2023-04-27T04:33:39;99931.25;;;10.41;94.64
9523;BME280;63165;43.016;25.784;2023-04-27T04:36:07;99916.53;;;10.35;93.98
9523;BME280;63165;43.016;25.784;2023-04-27T04:38:35;99931.34;;;10.36;94.03
9523;BME280;63165;43.016;25.784;2023-04-27T04:41:02;99947.72;;;10.46;93.64
9523;BME280;63165;43.016;25.784;2023-04-27T04:43:30;99940.81;;;10.42;93.61
9523;BME280;63165;43.016;25.784;2023-04-27T04:45:57;99951.22;;;10.45;93.41
9523;BME280;63165;43.016;25.784;2023-04-27T04:48:24;99932.13;;;10.40;93.58
9523;BME280;63165;43.016;25.784;2023-04-27T04:50:53;99942.50;;;10.46;94.18
9523;BME280;63165;43.016;25.784;2023-04-27T04:53:20;99935.34;;;10.54;94.23
9523;BME280;63165;43.016;25.784;2023-04-27T04:55:47;99929.44;;;10.44;94.09
9523;BME280;63165;43.016;25.784;2023-04-27T04:58:15;99931.94;;;10.51;93.85
9523;BME280;63165;43.016;25.784;2023-04-27T05:00:42;99952.84;;;10.52;94.31
9523;BME280;63165;43.016;25.784;2023-04-27T05:03:09;99934.47;;;10.55;94.50
9523;BME280;63165;43.016;25.784;2023-04-27T05:05:36;99964.13;;;10.54;94.60
9523;BME280;63165;43.016;25.784;2023-04-27T05:08:05;99957.88;;;10.63;94.38
9523;BME280;63165;43.016;25.784;2023-04-27T05:10:33;99906.19;;;10.26;94.07
9523;BME280;63165;43.016;25.784;2023-04-27T05:13:00;99957.94;;;10.58;94.26
9523;BME280;63165;43.016;25.784;2023-04-27T05:15:28;99900.09;;;10.27;93.58
9523;BME280;63165;43.016;25.784;2023-04-27T05:17:55;99940.69;;;10.49;93.06
9523;BME280;63165;43.016;25.784;2023-04-27T05:20:23;99946.63;;;10.58;92.91
9523;BME280;63165;43.016;25.784;2023-04-27T05:22:50;99973.88;;;10.46;92.65
9523;BME280;63165;43.016;25.784;2023-04-27T05:25:19;99957.13;;;10.56;92.22
9523;BME280;63165;43.016;25.784;2023-04-27T05:27:46;99939.34;;;10.24;92.22
9523;BME280;63165;43.016;25.784;2023-04-27T05:30:14;99960.53;;;10.61;92.71
9523;BME280;63165;43.016;25.784;2023-04-27T05:32:45;99974.53;;;10.59;93.29
9523;BME280;63165;43.016;25.784;2023-04-27T05:35:12;99936.22;;;10.55;93.04
9523;BME280;63165;43.016;25.784;2023-04-27T05:37:43;99962.00;;;10.76;93.01
9523;BME280;63165;43.016;25.784;2023-04-27T05:40:10;99968.81;;;10.85;93.58
9523;BME280;63165;43.016;25.784;2023-04-27T05:42:39;99949.28;;;10.55;93.09
9523;BME280;63165;43.016;25.784;2023-04-27T05:45:07;99964.59;;;10.78;92.82
9523;BME280;63165;43.016;25.784;2023-04-27T05:47:35;99969.78;;;10.79;93.13
9523;BME280;63165;43.016;25.784;2023-04-27T05:50:03;99945.50;;;10.71;92.59
9523;BME280;63165;43.016;25.784;2023-04-27T05:52:31;99967.19;;;10.79;92.26
9523;BME280;63165;43.016;25.784;2023-04-27T05:54:58;99951.47;;;10.79;92.04
9523;BME280;63165;43.016;25.784;2023-04-27T05:57:26;99955.94;;;10.74;92.09
9523;BME280;63165;43.016;25.784;2023-04-27T05:59:55;99970.44;;;10.91;92.27
9523;BME280;63165;43.016;25.784;2023-04-27T06:02:22;99910.09;;;10.53;91.75
9523;BME280;63165;43.016;25.784;2023-04-27T06:04:49;99928.38;;;10.55;91.29
9523;BME280;63165;43.016;25.784;2023-04-27T06:07:17;99982.38;;;11.05;91.10
9523;BME280;63165;43.016;25.784;2023-04-27T06:09:45;99910.19;;;10.47;89.98
9523;BME280;63165;43.016;25.784;2023-04-27T06:12:12;99978.84;;;11.06;89.64
9523;BME280;63165;43.016;25.784;2023-04-27T06:14:39;99977.03;;;11.10;89.20
9523;BME280;63165;43.016;25.784;2023-04-27T06:17:08;99984.84;;;11.13;89.02
9523;BME280;63165;43.016;25.784;2023-04-27T06:19:35;99976.97;;;11.13;88.74
9523;BME280;63165;43.016;25.784;2023-04-27T06:22:02;99991.75;;;11.16;89.08
9523;BME280;63165;43.016;25.784;2023-04-27T06:24:29;99998.75;;;11.17;87.88
9523;BME280;63165;43.016;25.784;2023-04-27T06:26:57;99985.75;;;11.11;88.43
9523;BME280;63165;43.016;25.784;2023-04-27T06:29:24;99988.31;;;11.14;88.93
9523;BME280;63165;43.016;25.784;2023-04-27T06:32:09;99992.56;;;11.19;89.30
9523;BME280;63165;43.016;25.784;2023-04-27T06:34:36;99992.66;;;11.15;89.05
9523;BME280;63165;43.016;25.784;2023-04-27T06:37:03;99969.13;;;11.13;89.34
9523;BME280;63165;43.016;25.784;2023-04-27T06:39:31;99954.44;;;11.06;89.18
9523;BME280;63165;43.016;25.784;2023-04-27T06:41:58;99946.78;;;10.95;88.63
9523;BME280;63165;43.016;25.784;2023-04-27T06:44:25;99959.75;;;11.01;88.02
9523;BME280;63165;43.016;25.784;2023-04-27T06:46:52;100000.19;;;11.32;87.83
9523;BME280;63165;43.016;25.784;2023-04-27T06:49:21;99967.38;;;11.14;88.40
9523;BME280;63165;43.016;25.784;2023-04-27T06:51:48;99984.56;;;11.25;88.38
9523;BME280;63165;43.016;25.784;2023-04-27T06:54:15;100013.13;;;11.39;87.46
9523;BME280;63165;43.016;25.784;2023-04-27T06:56:48;100005.97;;;11.48;86.98
9523;BME280;63165;43.016;25.784;2023-04-27T06:59:15;100002.28;;;11.56;86.92
9523;BME280;63165;43.016;25.784;2023-04-27T07:01:42;99999.53;;;11.62;87.23
9523;BME280;63165;43.016;25.784;2023-04-27T07:04:09;100008.06;;;11.71;87.76
9523;BME280;63165;43.016;25.784;2023-04-27T07:06:37;100005.56;;;11.66;87.68
9523;BME280;63165;43.016;25.784;2023-04-27T07:09:05;100015.78;;;11.78;87.09
9523;BME280;63165;43.016;25.784;2023-04-27T07:11:32;99995.97;;;11.65;85.97
9523;BME280;63165;43.016;25.784;2023-04-27T07:13:59;100003.75;;;11.70;84.73
9523;BME280;63165;43.016;25.784;2023-04-27T07:16:26;100015.03;;;11.73;82.79
9523;BME280;63165;43.016;25.784;2023-04-27T07:18:53;100004.72;;;11.65;82.69
9523;BME280;63165;43.016;25.784;2023-04-27T07:21:21;100009.06;;;11.65;82.32
9523;BME280;63165;43.016;25.784;2023-04-27T07:23:49;100015.22;;;11.64;81.46
9523;BME280;63165;43.016;25.784;2023-04-27T07:26:16;99955.59;;;11.33;81.65
9523;BME280;63165;43.016;25.784;2023-04-27T07:28:44;99992.06;;;11.42;81.52
9523;BME280;63165;43.016;25.784;2023-04-27T07:31:12;100014.31;;;11.65;82.14
9523;BME280;63165;43.016;25.784;2023-04-27T07:33:39;100003.16;;;11.55;82.70
9523;BME280;63165;43.016;25.784;2023-04-27T07:36:06;99966.22;;;11.27;81.41
9523;BME280;63165;43.016;25.784;2023-04-27T07:38:33;100020.25;;;11.73;81.36
9523;BME280;63165;43.016;25.784;2023-04-27T07:41:04;100008.13;;;11.69;81.54
9523;BME280;63165;43.016;25.784;2023-04-27T07:43:31;100028.00;;;11.78;81.34
9523;BME280;63165;43.016;25.784;2023-04-27T07:45:58;100037.47;;;11.85;80.55
9523;BME280;63165;43.016;25.784;2023-04-27T07:48:26;100032.19;;;11.90;80.59
9523;BME280;63165;43.016;25.784;2023-04-27T07:50:55;100008.97;;;11.71;79.87
9523;BME280;63165;43.016;25.784;2023-04-27T07:53:22;100031.38;;;11.84;79.63
9523;BME280;63165;43.016;25.784;2023-04-27T07:55:49;100033.88;;;11.91;79.59
9523;BME280;63165;43.016;25.784;2023-04-27T07:58:18;100038.13;;;11.96;79.65
9523;BME280;63165;43.016;25.784;2023-04-27T08:00:46;100031.09;;;11.98;79.98
9523;BME280;63165;43.016;25.784;2023-04-27T08:03:13;100034.59;;;11.99;79.24
9523;BME280;63165;43.016;25.784;2023-04-27T08:05:41;100029.41;;;11.96;79.53
9523;BME280;63165;43.016;25.784;2023-04-27T08:08:10;100036.22;;;12.04;78.90
9523;BME280;63165;43.016;25.784;2023-04-27T08:10:37;100037.06;;;12.05;78.29
9523;BME280;63165;43.016;25.784;2023-04-27T08:13:05;100043.06;;;12.10;77.96
9523;BME280;63165;43.016;25.784;2023-04-27T08:15:38;100034.47;;;12.03;76.60
9523;BME280;63165;43.016;25.784;2023-04-27T08:18:05;100041.28;;;12.12;76.79
9523;BME280;63165;43.016;25.784;2023-04-27T08:20:33;100044.50;;;12.23;77.08
9523;BME280;63165;43.016;25.784;2023-04-27T08:23:00;100045.34;;;12.26;76.75
9523;BME280;63165;43.016;25.784;2023-04-27T08:25:27;100053.22;;;12.24;75.55
9523;BME280;63165;43.016;25.784;2023-04-27T08:27:54;100042.00;;;12.17;74.82
9523;BME280;63165;43.016;25.784;2023-04-27T08:30:22;100045.25;;;12.29;74.47
9523;BME280;63165;43.016;25.784;2023-04-27T08:32:53;100044.31;;;12.31;74.71
9523;BME280;63165;43.016;25.784;2023-04-27T08:35:20;100032.31;;;12.21;75.05
9523;BME280;63165;43.016;25.784;2023-04-27T08:37:48;100035.41;;;12.38;74.76
9523;BME280;63165;43.016;25.784;2023-04-27T08:40:15;100046.63;;;12.43;74.68
9523;BME280;63165;43.016;25.784;2023-04-27T08:42:53;100049.19;;;12.47;74.00
9523;BME280;63165;43.016;25.784;2023-04-27T08:45:21;100043.06;;;12.48;74.07
9523;BME280;63165;43.016;25.784;2023-04-27T08:47:49;100043.16;;;12.43;73.77
9523;BME280;63165;43.016;25.784;2023-04-27T08:50:18;100043.88;;;12.50;74.03
9523;BME280;63165;43.016;25.784;2023-04-27T08:52:46;100053.56;;;12.48;72.45
9523;BME280;63165;43.016;25.784;2023-04-27T08:55:13;100025.00;;;12.34;72.72
9523;BME280;63165;43.016;25.784;2023-04-27T08:57:41;100040.38;;;12.49;72.97
9523;BME280;63165;43.016;25.784;2023-04-27T09:00:09;100048.22;;;12.51;73.15
9523;BME280;63165;43.016;25.784;2023-04-27T09:02:44;100029.22;;;12.41;72.57
9523;BME280;63165;43.016;25.784;2023-04-27T09:05:14;100044.72;;;12.50;72.96
9523;BME280;63165;43.016;25.784;2023-04-27T09:07:57;100043.00;;;12.49;72.74
9523;BME280;63165;43.016;25.784;2023-04-27T09:10:25;100043.84;;;12.51;72.07
9523;BME280;63165;43.016;25.784;2023-04-27T09:12:55;100051.75;;;12.50;70.45
9523;BME280;63165;43.016;25.784;2023-04-27T09:15:22;100030.78;;;12.48;70.32
9523;BME280;63165;43.016;25.784;2023-04-27T09:17:56;100035.91;;;12.53;70.23
9523;BME280;63165;43.016;25.784;2023-04-27T09:20:24;100030.53;;;12.59;69.86
9523;BME280;63165;43.016;25.784;2023-04-27T09:22:56;100033.22;;;12.56;69.26
9523;BME280;63165;43.016;25.784;2023-04-27T09:25:26;100034.66;;;12.68;68.21
9523;BME280;63165;43.016;25.784;2023-04-27T09:27:53;100026.06;;;12.62;68.18
9523;BME280;63165;43.016;25.784;2023-04-27T09:30:21;100000.91;;;12.54;67.94
9523;BME280;63165;43.016;25.784;2023-04-27T09:32:52;100020.69;;;12.67;68.19
9523;BME280;63165;43.016;25.784;2023-04-27T09:35:24;100026.66;;;12.74;68.36
9523;BME280;63165;43.016;25.784;2023-04-27T09:37:52;100023.09;;;12.75;68.36
9523;BME280;63165;43.016;25.784;2023-04-27T09:40:23;100014.38;;;12.74;67.84
9523;BME280;63165;43.016;25.784;2023-04-27T09:42:53;100024.63;;;12.84;67.33
9523;BME280;63165;43.016;25.784;2023-04-27T09:45:20;99927.19;;;12.29;67.38
9523;BME280;63165;43.016;25.784;2023-04-27T09:47:48;99993.44;;;12.71;68.06
9523;BME280;63165;43.016;25.784;2023-04-27T09:50:16;100000.34;;;12.75;68.15
9523;BME280;63165;43.016;25.784;2023-04-27T09:52:45;100014.00;;;12.88;68.18
9523;BME280;63165;43.016;25.784;2023-04-27T09:55:15;100015.81;;;12.86;68.02
9523;BME280;63165;43.016;25.784;2023-04-27T09:57:52;100010.38;;;12.92;67.52
9523;BME280;63165;43.016;25.784;2023-04-27T10:00:29;100012.88;;;12.98;66.08
9523;BME280;63165;43.016;25.784;2023-04-27T10:03:10;100020.72;;;13.00;65.70
9523;BME280;63165;43.016;25.784;2023-04-27T10:05:55;100006.59;;;13.04;65.98
9523;BME280;63165;43.016;25.784;2023-04-27T10:08:33;99995.38;;;12.97;65.98
9523;BME280;63165;43.016;25.784;2023-04-27T10:11:00;100014.25;;;13.12;65.75
9523;BME280;63165;43.016;25.784;2023-04-27T10:13:30;100013.25;;;13.16;66.11
9523;BME280;63165;43.016;25.784;2023-04-27T10:15:57;100015.81;;;13.19;66.28
9523;BME280;63165;43.016;25.784;2023-04-27T10:18:50;100009.66;;;13.18;65.41
9523;BME280;63165;43.016;25.784;2023-04-27T10:21:17;100013.97;;;13.23;64.93
9523;BME280;63165;43.016;25.784;2023-04-27T10:23:45;100017.44;;;13.23;64.96
9523;BME280;63165;43.016;25.784;2023-04-27T10:26:21;100013.00;;;13.25;65.13
9523;BME280;63165;43.016;25.784;2023-04-27T10:29:04;100010.19;;;13.33;65.74
9523;BME280;63165;43.016;25.784;2023-04-27T10:31:32;100011.81;;;13.37;65.76
9523;BME280;63165;43.016;25.784;2023-04-27T10:34:06;100014.94;;;13.50;66.06
9523;BME280;63165;43.016;25.784;2023-04-27T10:36:35;100012.78;;;13.64;67.08
9523;BME280;63165;43.016;25.784;2023-04-27T10:39:13;99997.81;;;13.66;66.68
9523;BME280;63165;43.016;25.784;2023-04-27T10:41:48;100005.09;;;13.86;66.21
9523;BME280;63165;43.016;25.784;2023-04-27T10:44:17;100016.97;;;14.00;66.05
9523;BME280;63165;43.016;25.784;2023-04-27T10:46:51;100010.50;;;14.10;65.25
9523;BME280;63165;43.016;25.784;2023-04-27T10:49:19;100007.56;;;14.19;65.33
9523;BME280;63165;43.016;25.784;2023-04-27T10:51:48;99915.22;;;13.73;64.82
9523;BME280;63165;43.016;25.784;2023-04-27T10:54:16;100001.56;;;14.42;64.67
9523;BME280;63165;43.016;25.784;2023-04-27T10:56:44;99983.19;;;14.41;63.80
9523;BME280;63165;43.016;25.784;2023-04-27T10:59:11;99998.63;;;14.51;63.06
9523;BME280;63165;43.016;25.784;2023-04-27T11:01:40;100003.28;;;14.70;62.93
9523;BME280;63165;43.016;25.784;2023-04-27T11:04:07;99993.22;;;14.81;63.03
9523;BME280;63165;43.016;25.784;2023-04-27T11:06:41;100005.00;;;14.96;63.57
9523;BME280;63165;43.016;25.784;2023-04-27T11:09:08;99991.22;;;15.13;64.03
9523;BME280;63165;43.016;25.784;2023-04-27T11:11:37;99993.47;;;15.24;63.23
9523;BME280;63165;43.016;25.784;2023-04-27T11:14:04;99988.72;;;15.33;62.32
9523;BME280;63165;43.016;25.784;2023-04-27T11:16:32;99993.94;;;15.35;60.34
9523;BME280;63165;43.016;25.784;2023-04-27T11:19:05;99989.25;;;15.43;59.82
9523;BME280;63165;43.016;25.784;2023-04-27T11:21:32;99991.69;;;15.48;59.88
9523;BME280;63165;43.016;25.784;2023-04-27T11:24:03;99981.66;;;15.58;59.78
9523;BME280;63165;43.016;25.784;2023-04-27T11:26:31;99982.81;;;15.74;59.98
9523;BME280;63165;43.016;25.784;2023-04-27T11:29:00;99964.28;;;15.76;59.45
9523;BME280;63165;43.016;25.784;2023-04-27T11:31:39;99981.97;;;15.96;59.28
9523;BME280;63165;43.016;25.784;2023-04-27T11:34:14;99980.78;;;16.03;59.34
9523;BME280;63165;43.016;25.784;2023-04-27T11:36:42;99973.88;;;16.00;59.00
9523;BME280;63165;43.016;25.784;2023-04-27T11:39:15;99991.59;;;16.19;58.21
9523;BME280;63165;43.016;25.784;2023-04-27T11:41:44;99984.84;;;16.11;56.72
9523;BME280;63165;43.016;25.784;2023-04-27T11:44:11;99986.69;;;16.09;57.26
9523;BME280;63165;43.016;25.784;2023-04-27T11:46:43;99980.97;;;16.20;56.28
9523;BME280;63165;43.016;25.784;2023-04-27T11:49:12;99976.84;;;16.35;57.22
9523;BME280;63165;43.016;25.784;2023-04-27T11:51:40;99980.69;;;16.48;58.66
9523;BME280;63165;43.016;25.784;2023-04-27T11:54:09;99975.53;;;16.66;57.76
9523;BME280;63165;43.016;25.784;2023-04-27T11:56:38;99969.78;;;16.77;57.81
9523;BME280;63165;43.016;25.784;2023-04-27T11:59:16;99979.53;;;16.97;56.96
9523;BME280;63165;43.016;25.784;2023-04-27T12:01:43;99978.47;;;17.01;57.08
9523;BME280;63165;43.016;25.784;2023-04-27T12:04:12;99974.97;;;17.00;55.00
9523;BME280;63165;43.016;25.784;2023-04-27T12:06:41;99973.25;;;16.99;54.69
9523;BME280;63165;43.016;25.784;2023-04-27T12:09:08;99971.59;;;16.97;54.75
9523;BME280;63165;43.016;25.784;2023-04-27T12:11:36;99973.16;;;16.80;54.41
9523;BME280;63165;43.016;25.784;2023-04-27T12:14:03;99953.16;;;16.75;55.41
9523;BME280;63165;43.016;25.784;2023-04-27T12:16:31;99968.34;;;16.90;55.35
9523;BME280;63165;43.016;25.784;2023-04-27T12:18:59;99970.53;;;17.01;55.95
9523;BME280;63165;43.016;25.784;2023-04-27T12:21:28;99966.69;;;17.08;56.22
9523;BME280;63165;43.016;25.784;2023-04-27T12:23:56;99961.97;;;17.15;55.76
9523;BME280;63165;43.016;25.784;2023-04-27T12:26:23;99971.41;;;17.20;55.64
9523;BME280;63165;43.016;25.784;2023-04-27T12:28:51;99969.00;;;17.35;55.26
9523;BME280;63165;43.016;25.784;2023-04-27T12:31:19;99968.66;;;17.42;56.04
9523;BME280;63165;43.016;25.784;2023-04-27T12:33:49;99963.72;;;17.54;56.72
9523;BME280;63165;43.016;25.784;2023-04-27T12:36:16;99978.31;;;17.62;55.40
9523;BME280;63165;43.016;25.784;2023-04-27T12:38:45;99977.88;;;17.72;54.84
9523;BME280;63165;43.016;25.784;2023-04-27T12:41:12;99963.25;;;17.82;55.14
9523;BME280;63165;43.016;25.784;2023-04-27T12:43:39;99967.44;;;17.69;53.50
9523;BME280;63165;43.016;25.784;2023-04-27T12:46:08;99954.28;;;17.48;54.19
9523;BME280;63165;43.016;25.784;2023-04-27T12:48:36;99968.66;;;17.42;54.28
9523;BME280;63165;43.016;25.784;2023-04-27T12:51:05;99959.16;;;17.38;54.48
9523;BME280;63165;43.016;25.784;2023-04-27T12:53:32;99956.44;;;17.40;54.31
9523;BME280;63165;43.016;25.784;2023-04-27T12:56:01;99954.56;;;17.42;54.10
9523;BME280;63165;43.016;25.784;2023-04-27T12:58:29;99949.59;;;17.36;54.09
9523;BME280;63165;43.016;25.784;2023-04-27T13:00:56;99944.28;;;17.36;54.20
9523;BME280;63165;43.016;25.784;2023-04-27T13:03:23;99929.09;;;17.20;54.04